createdAt,value
2018-10-07T00:00:45.741Z,1.00
2018-10-07T00:03:15.153Z,1.00
2018-10-07T00:05:44.603Z,1.00
2018-10-07T00:08:14.002Z,1.00
2018-10-07T00:10:43.441Z,1.00
2018-10-07T00:13:12.798Z,1.00
2018-10-07T00:15:42.205Z,1.00
2018-10-07T00:18:11.613Z,1.00
2018-10-07T00:20:41.048Z,1.00
2018-10-07T00:23:10.455Z,1.00
2018-10-07T00:25:39.887Z,1.00
2018-10-07T00:28:09.257Z,1.00
2018-10-07T00:30:38.635Z,1.00
2018-10-07T00:33:08.205Z,1.00
2018-10-07T00:35:37.655Z,1.00
2018-10-07T00:38:07.142Z,1.00
2018-10-07T00:40:36.493Z,1.00
2018-10-07T00:43:05.985Z,1.00
2018-10-07T00:45:35.350Z,1.00
2018-10-07T00:48:04.898Z,1.00
2018-10-07T00:50:34.261Z,1.00
2018-10-07T00:53:03.679Z,1.00
2018-10-07T00:55:33.052Z,1.00
2018-10-07T00:58:02.498Z,1.00
2018-10-07T01:00:31.862Z,2.20
2018-10-07T01:03:01.268Z,8.30
2018-10-07T01:05:30.703Z,12.20
2018-10-07T01:08:00.097Z,11.40
2018-10-07T01:10:29.510Z,10.80
2018-10-07T01:12:58.907Z,14.00
2018-10-07T01:15:28.313Z,10.40
2018-10-07T01:17:57.745Z,7.20
2018-10-07T01:20:27.866Z,9.60
2018-10-07T01:22:57.276Z,10.90
2018-10-07T01:25:26.703Z,15.20
2018-10-07T01:27:56.147Z,14.70
2018-10-07T01:30:25.567Z,20.20
2018-10-07T01:32:55.893Z,23.20
2018-10-07T01:35:25.713Z,20.90
2018-10-07T01:37:55.130Z,15.80
2018-10-07T01:40:24.544Z,15.50
2018-10-07T01:42:54.029Z,20.70
2018-10-07T01:45:23.434Z,22.10
2018-10-07T01:47:52.981Z,22.70
2018-10-07T01:50:22.372Z,26.80
2018-10-07T01:52:51.818Z,36.60
2018-10-07T01:55:21.234Z,45.00
2018-10-07T01:57:50.712Z,46.70
2018-10-07T02:00:20.088Z,47.50
2018-10-07T02:02:49.494Z,47.60
2018-10-07T02:05:18.910Z,64.20
2018-10-07T02:07:48.350Z,68.60
2018-10-07T02:10:17.760Z,84.20
2018-10-07T02:12:47.260Z,75.50
2018-10-07T02:15:16.686Z,84.80
2018-10-07T02:17:46.183Z,81.50
2018-10-07T02:20:15.594Z,83.20
2018-10-07T02:22:45.059Z,92.30
2018-10-07T02:25:14.458Z,94.10
2018-10-07T02:27:43.933Z,99.90
2018-10-07T02:30:13.336Z,99.90
2018-10-07T02:32:42.973Z,99.90
2018-10-07T02:35:12.330Z,99.90
2018-10-07T02:37:41.746Z,99.90
2018-10-07T02:40:11.169Z,99.90
2018-10-07T02:42:40.558Z,99.90
2018-10-07T02:45:09.952Z,99.90
2018-10-07T02:47:39.323Z,99.90
2018-10-07T02:50:20.314Z,99.90
2018-10-07T02:52:52.103Z,99.90
2018-10-07T02:55:30.691Z,99.90
2018-10-07T02:58:01.846Z,99.90
2018-10-07T03:00:31.253Z,99.90
2018-10-07T03:03:00.661Z,99.90
2018-10-07T03:05:30.068Z,99.90
2018-10-07T03:07:59.460Z,99.90
2018-10-07T03:10:28.899Z,99.90
2018-10-07T03:12:58.368Z,99.90
2018-10-07T03:15:27.889Z,99.90
2018-10-07T03:17:57.290Z,99.90
2018-10-07T03:20:26.726Z,99.90
2018-10-07T03:22:56.131Z,99.90
2018-10-07T03:25:25.626Z,99.90
2018-10-07T03:27:55.018Z,99.90
2018-10-07T03:30:24.524Z,99.90
2018-10-07T03:32:53.931Z,99.90
2018-10-07T03:35:23.435Z,99.90
2018-10-07T03:37:53.049Z,99.90
2018-10-07T03:40:22.463Z,99.90
2018-10-07T03:42:51.951Z,99.90
2018-10-07T03:45:21.391Z,99.90
2018-10-07T03:47:50.866Z,99.90
2018-10-07T03:50:20.267Z,99.90
2018-10-07T03:52:49.768Z,99.90
2018-10-07T03:55:19.187Z,99.90
2018-10-07T03:57:48.686Z,99.90
2018-10-07T04:00:18.088Z,99.90
2018-10-07T04:02:47.579Z,99.90
2018-10-07T04:05:17.099Z,99.90
2018-10-07T04:07:46.571Z,99.90
2018-10-07T04:10:15.935Z,99.90
2018-10-07T04:12:45.383Z,99.90
2018-10-07T04:15:14.758Z,99.90
2018-10-07T04:17:44.176Z,99.90
2018-10-07T04:20:13.533Z,99.90
2018-10-07T04:22:42.960Z,99.90
2018-10-07T04:25:12.315Z,99.90
2018-10-07T04:27:41.778Z,99.90
2018-10-07T04:30:11.145Z,99.90
2018-10-07T04:32:40.594Z,99.90
2018-10-07T04:35:09.975Z,99.90
2018-10-07T04:37:39.405Z,99.90
2018-10-07T04:40:08.766Z,99.90
2018-10-07T04:42:38.189Z,99.90
2018-10-07T04:45:07.559Z,99.90
2018-10-07T04:47:37.003Z,99.90
2018-10-07T04:50:06.807Z,99.90
2018-10-07T04:52:36.345Z,99.90
2018-10-07T04:55:05.823Z,99.90
2018-10-07T04:57:35.221Z,99.90
2018-10-07T05:00:04.905Z,99.90
2018-10-07T05:02:34.345Z,99.90
2018-10-07T05:05:03.719Z,99.90
2018-10-07T05:07:33.258Z,99.90
2018-10-07T05:10:51.654Z,99.90
2018-10-07T05:13:30.046Z,99.90
2018-10-07T05:16:02.606Z,99.90
2018-10-07T05:18:32.430Z,99.90
2018-10-07T05:21:01.936Z,99.90
2018-10-07T05:23:31.313Z,99.90
2018-10-07T05:26:00.749Z,99.90
2018-10-07T05:28:30.246Z,99.90
2018-10-07T05:30:59.650Z,99.90
2018-10-07T05:33:29.235Z,99.90
2018-10-07T05:35:58.618Z,99.90
2018-10-07T05:38:28.011Z,99.90
2018-10-07T05:40:57.540Z,99.90
2018-10-07T05:43:27.094Z,99.90
2018-10-07T05:45:56.489Z,99.90
2018-10-07T05:48:25.953Z,99.90
2018-10-07T05:50:55.366Z,99.90
2018-10-07T05:53:24.861Z,99.90
2018-10-07T05:55:54.290Z,99.90
2018-10-07T05:58:23.786Z,99.90
2018-10-07T06:00:55.747Z,99.90
2018-10-07T06:03:38.764Z,99.90
2018-10-07T06:06:08.763Z,99.90
2018-10-07T06:08:40.313Z,99.90
2018-10-07T06:11:09.707Z,99.90
2018-10-07T06:13:39.098Z,99.90
2018-10-07T06:16:08.607Z,99.90
2018-10-07T06:18:38.020Z,99.90
2018-10-07T06:21:07.420Z,99.90
2018-10-07T06:23:36.809Z,99.90
2018-10-07T06:26:06.178Z,99.90
2018-10-07T06:28:35.620Z,99.90
2018-10-07T06:31:05.053Z,99.90
2018-10-07T06:33:34.537Z,99.90
2018-10-07T06:36:03.886Z,99.90
2018-10-07T06:38:33.233Z,99.90
2018-10-07T06:41:02.596Z,99.90
2018-10-07T06:43:32.031Z,99.90
2018-10-07T06:46:01.395Z,99.90
2018-10-07T06:48:30.838Z,99.90
2018-10-07T06:51:00.211Z,99.90
2018-10-07T06:53:29.643Z,99.90
2018-10-07T06:55:58.985Z,99.90
2018-10-07T06:58:28.449Z,99.90
2018-10-07T07:00:57.801Z,99.90
2018-10-07T07:03:27.251Z,99.90
2018-10-07T07:05:56.650Z,99.90
2018-10-07T07:08:26.085Z,99.90
2018-10-07T07:10:55.503Z,99.90
2018-10-07T07:13:24.993Z,99.90
2018-10-07T07:15:54.414Z,99.90
2018-10-07T07:18:23.905Z,99.90
2018-10-07T07:20:53.286Z,99.90
2018-10-07T07:23:22.725Z,99.90
2018-10-07T07:25:52.105Z,99.90
2018-10-07T07:28:21.744Z,99.90
2018-10-07T07:30:51.143Z,99.90
2018-10-07T07:33:20.650Z,99.90
2018-10-07T07:35:50.048Z,99.90
2018-10-07T07:38:19.534Z,99.90
2018-10-07T07:40:48.941Z,99.90
2018-10-07T07:43:18.447Z,99.90
2018-10-07T07:45:47.882Z,99.90
2018-10-07T07:48:17.497Z,99.90
2018-10-07T07:50:46.862Z,99.90
2018-10-07T07:53:16.371Z,99.90
2018-10-07T07:55:45.774Z,99.90
2018-10-07T07:58:15.249Z,99.20
2018-10-07T08:00:44.645Z,98.60
2018-10-07T08:03:14.076Z,97.90
2018-10-07T08:05:43.450Z,89.20
2018-10-07T08:08:12.854Z,70.00
2018-10-07T08:10:42.248Z,55.80
2018-10-07T08:13:11.667Z,76.00
2018-10-07T08:15:41.054Z,76.90
2018-10-07T08:18:10.422Z,78.70
2018-10-07T08:20:39.807Z,62.40
2018-10-07T08:23:09.286Z,59.80
2018-10-07T08:25:38.686Z,57.00
2018-10-07T08:28:08.760Z,32.60
2018-10-07T08:30:38.175Z,17.60
2018-10-07T08:33:07.708Z,1.00
2018-10-07T08:35:37.084Z,1.00
2018-10-07T08:38:06.489Z,1.00
2018-10-07T08:40:35.876Z,1.00
2018-10-07T08:43:05.278Z,1.00
2018-10-07T08:45:34.659Z,1.00
2018-10-07T08:48:04.042Z,1.00
2018-10-07T08:50:33.390Z,1.00
2018-10-07T08:53:02.817Z,1.00
2018-10-07T08:55:32.226Z,1.00
2018-10-07T08:58:01.762Z,1.00
2018-10-07T09:00:31.138Z,99.90
2018-10-07T09:03:00.647Z,99.90
2018-10-07T09:05:30.014Z,99.90
2018-10-07T09:07:59.431Z,99.90
2018-10-07T09:10:28.818Z,99.90
2018-10-07T09:12:58.239Z,1.00
2018-10-07T09:15:27.607Z,1.00
2018-10-07T09:17:57.050Z,99.90
2018-10-07T09:20:26.423Z,99.90
2018-10-07T09:22:55.827Z,1.00
2018-10-07T09:25:25.201Z,1.00
2018-10-07T09:27:57.254Z,99.90
2018-10-07T09:30:26.747Z,99.90
2018-10-07T09:32:56.312Z,1.00
2018-10-07T09:35:25.644Z,99.90
2018-10-07T09:37:55.151Z,1.00
2018-10-07T09:40:24.524Z,99.90
2018-10-07T09:42:53.906Z,99.90
2018-10-07T09:45:23.261Z,99.90
2018-10-07T09:47:52.774Z,69.00
2018-10-07T09:50:22.298Z,91.60
2018-10-07T09:52:51.783Z,1.00
2018-10-07T09:55:21.153Z,1.00
2018-10-07T09:57:50.556Z,1.00
2018-10-07T10:00:25.109Z,1.00
2018-10-07T10:02:54.475Z,1.00
2018-10-07T10:05:23.862Z,1.00
2018-10-07T10:07:53.298Z,99.90
2018-10-07T10:10:22.919Z,29.10
2018-10-07T10:12:52.287Z,1.00
2018-10-07T10:15:21.689Z,1.00
2018-10-07T10:17:57.278Z,1.00
2018-10-07T10:20:31.325Z,1.00
2018-10-07T10:23:18.119Z,99.90
2018-10-07T10:26:16.749Z,99.90
2018-10-07T10:29:14.858Z,99.90
2018-10-07T10:34:07.531Z,99.90
2018-10-07T10:36:50.020Z,99.90
2018-10-07T10:39:29.397Z,99.90
2018-10-07T10:42:05.137Z,99.90
2018-10-07T10:44:56.797Z,99.90
2018-10-07T10:47:38.573Z,99.90
2018-10-07T10:50:44.379Z,99.90
2018-10-07T10:53:24.772Z,99.90
2018-10-07T10:56:20.424Z,99.90
2018-10-07T11:01:06.613Z,99.90
2018-10-07T11:04:45.908Z,99.90
2018-10-07T11:07:25.360Z,99.90
2018-10-07T11:11:22.018Z,99.90
2018-10-07T11:13:59.054Z,99.90
2018-10-07T11:16:51.210Z,99.90
2018-10-07T11:20:43.587Z,99.90
2018-10-07T11:23:30.052Z,99.90
2018-10-07T11:27:10.451Z,99.90
2018-10-07T11:30:53.817Z,99.90
2018-10-07T11:35:36.866Z,99.90
2018-10-07T11:38:23.789Z,99.90
2018-10-07T11:42:02.421Z,99.90
2018-10-07T11:45:17.751Z,99.10
2018-10-07T11:47:58.471Z,99.20
2018-10-07T11:52:59.028Z,98.80
2018-10-07T11:55:28.359Z,99.20
2018-10-07T11:57:58.854Z,99.00
2018-10-07T12:00:28.281Z,99.10
2018-10-07T12:02:57.805Z,96.90
2018-10-07T12:05:27.228Z,98.80
2018-10-07T12:07:56.742Z,98.30
2018-10-07T12:10:26.273Z,98.90
2018-10-07T12:12:55.714Z,93.00
2018-10-07T12:15:25.166Z,99.30
2018-10-07T12:17:54.573Z,82.60
2018-10-07T12:20:23.962Z,72.50
2018-10-07T12:22:54.302Z,55.40
2018-10-07T12:25:23.807Z,47.90
2018-10-07T12:27:53.210Z,46.40
2018-10-07T12:30:22.599Z,52.70
2018-10-07T12:32:52.042Z,44.40
2018-10-07T12:35:21.518Z,48.20
2018-10-07T12:37:50.960Z,44.10
2018-10-07T12:40:20.347Z,52.10
2018-10-07T12:42:49.819Z,48.50
2018-10-07T12:45:19.225Z,43.60
2018-10-07T12:54:56.955Z,48.40
2018-10-07T12:57:26.371Z,19.80
2018-10-07T12:59:55.794Z,18.10
2018-10-07T13:02:25.202Z,13.40
2018-10-07T13:04:54.701Z,7.20
2018-10-07T13:07:24.078Z,4.30
2018-10-07T13:09:53.458Z,1.00
2018-10-07T13:12:22.898Z,1.00
2018-10-07T13:14:52.238Z,1.00
2018-10-07T13:17:21.687Z,1.00
2018-10-07T13:19:51.039Z,1.00
2018-10-07T13:22:20.517Z,3.80
2018-10-07T13:24:49.895Z,1.90
2018-10-07T13:27:19.284Z,1.00
2018-10-07T13:29:48.703Z,1.00
2018-10-07T13:32:18.046Z,1.00
2018-10-07T13:34:47.395Z,1.00
2018-10-07T13:37:16.810Z,1.00
2018-10-07T13:39:46.188Z,1.00
2018-10-07T13:42:15.619Z,1.00
2018-10-07T13:44:44.986Z,1.00
2018-10-07T13:47:14.418Z,1.00
2018-10-07T13:49:43.794Z,1.00
2018-10-07T13:52:13.229Z,1.00
2018-10-07T13:54:42.670Z,1.00
2018-10-07T13:57:12.018Z,1.00
2018-10-07T13:59:41.413Z,1.00
2018-10-07T14:02:10.868Z,1.00
2018-10-07T14:04:40.362Z,1.00
2018-10-07T14:07:09.802Z,1.00
2018-10-07T14:09:39.275Z,1.00
2018-10-07T14:12:08.667Z,1.00
2018-10-07T14:14:38.143Z,1.00
2018-10-07T14:17:07.673Z,1.00
2018-10-07T14:19:37.074Z,1.00
2018-10-07T14:22:06.549Z,1.00
2018-10-07T14:24:35.947Z,1.00
2018-10-07T14:27:05.379Z,1.00
2018-10-07T14:29:34.802Z,1.00
2018-10-07T14:32:04.171Z,1.00
2018-10-07T14:34:33.629Z,1.00
2018-10-07T14:37:03.081Z,1.00
2018-10-07T14:39:32.450Z,1.00
2018-10-07T14:42:01.901Z,1.00
2018-10-07T14:44:31.338Z,1.00
2018-10-07T14:47:00.833Z,1.00
2018-10-07T14:49:30.273Z,1.00
2018-10-07T14:51:59.718Z,1.00
2018-10-07T14:54:29.131Z,1.00
2018-10-07T14:56:58.557Z,1.00
2018-10-07T14:59:27.939Z,1.00
2018-10-07T15:01:57.343Z,1.00
2018-10-07T15:04:26.872Z,1.00
2018-10-07T15:06:56.342Z,1.00
2018-10-07T15:09:25.855Z,1.00
2018-10-07T15:11:55.262Z,1.00
2018-10-07T15:14:24.653Z,1.00
2018-10-07T15:16:54.082Z,1.00
2018-10-07T15:19:23.473Z,1.00
2018-10-07T15:21:52.973Z,1.00
2018-10-07T15:24:22.370Z,1.00
2018-10-07T15:26:51.785Z,1.00
2018-10-07T15:29:21.254Z,1.00
2018-10-07T15:31:50.685Z,1.00
2018-10-07T15:34:20.225Z,1.00
2018-10-07T15:36:49.728Z,1.00
2018-10-07T15:39:19.151Z,1.00
2018-10-07T15:41:48.641Z,1.00
2018-10-07T15:44:18.047Z,1.00
2018-10-07T15:46:47.533Z,1.00
2018-10-07T15:49:16.921Z,1.90
2018-10-07T15:51:46.417Z,6.60
2018-10-07T15:54:15.819Z,11.50
2018-10-07T15:56:45.285Z,24.40
2018-10-07T15:59:14.627Z,58.30
2018-10-07T16:01:44.037Z,96.90
2018-10-07T16:04:13.425Z,96.90
2018-10-07T16:07:08.262Z,99.90
2018-10-07T16:09:37.678Z,99.90
2018-10-07T16:12:07.301Z,99.90
2018-10-07T16:14:36.861Z,99.90
2018-10-07T16:17:06.477Z,99.90
2018-10-07T16:19:35.844Z,99.90
2018-10-07T16:22:05.357Z,1.00
2018-10-07T16:24:34.727Z,1.00
2018-10-07T16:27:04.157Z,5.00
2018-10-07T16:29:33.533Z,99.90
2018-10-07T16:32:02.980Z,99.90
2018-10-07T16:40:43.574Z,14.10
2018-10-07T16:43:13.197Z,1.00
2018-10-07T16:45:42.836Z,1.00
2018-10-07T16:48:12.530Z,99.90
2018-10-07T16:50:42.199Z,99.90
2018-10-07T16:53:11.800Z,1.00
2018-10-07T16:55:41.908Z,1.00
2018-10-07T16:58:11.506Z,99.90
2018-10-07T17:00:41.244Z,87.40
2018-10-07T17:03:10.850Z,99.90
2018-10-07T17:05:40.568Z,26.00
2018-10-07T17:08:10.170Z,99.90
2018-10-07T17:10:39.881Z,1.00
2018-10-07T17:13:09.480Z,99.90
2018-10-07T17:15:39.323Z,99.90
2018-10-07T17:18:09.204Z,1.00
2018-10-07T17:20:38.809Z,1.00
2018-10-07T17:23:08.489Z,1.00
2018-10-07T17:25:38.236Z,24.50
2018-10-07T17:28:07.827Z,99.90
2018-10-07T17:30:37.561Z,99.90
2018-10-07T17:33:07.287Z,99.90
2018-10-07T17:35:36.890Z,99.90
2018-10-07T17:38:06.886Z,99.90
2018-10-07T17:40:37.042Z,99.90
2018-10-07T17:43:07.563Z,99.90
2018-10-07T17:45:37.119Z,99.90
2018-10-07T17:48:06.911Z,1.00
2018-10-07T17:50:36.986Z,1.00
2018-10-07T17:53:06.793Z,1.00
2018-10-07T17:55:36.406Z,1.00
2018-10-07T17:58:06.229Z,1.00
2018-10-07T18:00:35.856Z,1.00
2018-10-07T18:03:05.673Z,1.00
2018-10-07T18:05:35.301Z,1.00
2018-10-07T18:08:06.075Z,1.00
2018-10-07T18:10:35.663Z,1.00
2018-10-07T18:13:05.404Z,1.00
2018-10-07T18:15:35.008Z,1.00
2018-10-07T18:18:04.835Z,1.00
2018-10-07T18:20:34.443Z,1.00
2018-10-07T18:23:04.226Z,1.00
2018-10-07T18:25:33.844Z,1.00
2018-10-07T18:28:03.731Z,1.00
2018-10-07T18:30:33.360Z,1.00
2018-10-07T18:33:03.454Z,1.00
2018-10-07T18:35:33.087Z,1.00
2018-10-07T18:38:02.884Z,1.00
2018-10-07T18:40:32.492Z,1.00
2018-10-07T18:43:02.239Z,1.00
2018-10-07T18:45:31.944Z,1.00
2018-10-07T18:48:01.725Z,1.00
2018-10-07T18:50:31.311Z,1.00
2018-10-07T18:53:01.244Z,1.00
2018-10-07T18:55:30.969Z,4.40
2018-10-07T18:58:00.687Z,2.40
2018-10-07T19:00:30.278Z,9.10
2018-10-07T19:03:00.161Z,11.60
2018-10-07T19:05:29.652Z,10.80
2018-10-07T19:07:59.320Z,15.20
2018-10-07T19:10:28.916Z,16.50
2018-10-07T19:12:58.591Z,19.70
2018-10-07T19:15:28.184Z,24.70
2018-10-07T19:17:57.983Z,26.00
2018-10-07T19:20:27.651Z,25.60
2018-10-07T19:22:57.380Z,25.00
2018-10-07T19:25:26.958Z,26.50
2018-10-07T19:27:56.674Z,31.30
2018-10-07T19:30:26.263Z,30.50
2018-10-07T19:32:56.099Z,31.60
2018-10-07T19:35:25.997Z,36.40
2018-10-07T19:37:55.625Z,41.60
2018-10-07T19:40:25.321Z,43.00
2018-10-07T19:42:55.227Z,41.90
2018-10-07T19:45:24.966Z,41.20
2018-10-07T19:47:54.676Z,43.20
2018-10-07T19:50:24.292Z,44.10
2018-10-07T19:52:54.232Z,44.40
2018-10-07T19:55:23.882Z,45.10
2018-10-07T19:57:53.607Z,50.40
2018-10-07T20:00:23.224Z,54.20
2018-10-07T20:02:53.091Z,55.00
2018-10-07T20:05:23.010Z,55.10
2018-10-07T20:07:52.786Z,55.20
2018-10-07T20:10:22.499Z,58.00
2018-10-07T20:12:52.515Z,59.30
2018-10-07T20:15:22.265Z,62.20
2018-10-07T20:17:52.044Z,72.90
2018-10-07T20:20:21.649Z,82.00
2018-10-07T20:22:51.473Z,82.40
2018-10-07T20:25:21.082Z,83.60
2018-10-07T20:27:50.918Z,82.30
2018-10-07T20:30:20.589Z,81.80
2018-10-07T20:32:50.204Z,81.40
2018-10-07T20:35:20.070Z,82.20
2018-10-07T20:37:49.757Z,82.50
2018-10-07T20:40:19.508Z,82.50
2018-10-07T20:42:49.143Z,84.10
2018-10-07T20:45:18.949Z,86.70
2018-10-07T20:47:48.537Z,88.40
2018-10-07T20:50:18.338Z,88.70
2018-10-07T20:52:47.995Z,90.90
2018-10-07T20:55:17.801Z,91.30
2018-10-07T20:57:47.468Z,91.80
2018-10-07T21:00:17.289Z,93.50
2018-10-07T21:02:46.954Z,93.40
2018-10-07T21:05:16.720Z,94.60
2018-10-07T21:07:46.339Z,94.60
2018-10-07T21:10:16.018Z,94.90
2018-10-07T21:12:45.669Z,96.10
2018-10-07T21:15:15.493Z,98.20
2018-10-07T21:17:45.118Z,99.90
2018-10-07T21:20:15.102Z,99.90
2018-10-07T21:22:44.743Z,99.90
2018-10-07T21:25:14.505Z,99.90
2018-10-07T21:27:44.103Z,99.90
2018-10-07T21:30:13.902Z,99.90
2018-10-07T21:32:43.524Z,99.90
2018-10-07T21:35:13.335Z,99.90
2018-10-07T21:37:42.964Z,99.90
2018-10-07T21:40:12.761Z,99.90
2018-10-07T21:42:42.426Z,99.90
2018-10-07T21:45:12.254Z,99.90
2018-10-07T21:47:41.919Z,99.90
2018-10-07T21:50:11.719Z,99.90
2018-10-07T21:52:41.434Z,99.90
2018-10-07T21:55:11.149Z,99.90
2018-10-07T21:57:40.763Z,99.90
2018-10-07T22:00:10.965Z,99.90
2018-10-07T22:02:40.580Z,99.90
2018-10-07T22:05:10.448Z,99.90
2018-10-07T22:07:40.118Z,99.90
2018-10-07T22:10:09.893Z,99.90
2018-10-07T22:12:39.622Z,99.90
2018-10-07T22:15:09.499Z,99.90
2018-10-07T22:17:39.116Z,99.90
2018-10-07T22:20:09.033Z,99.90
2018-10-07T22:22:38.613Z,99.90
2018-10-07T22:25:08.482Z,99.90
2018-10-07T22:27:38.182Z,99.90
2018-10-07T22:30:08.028Z,99.90
2018-10-07T22:32:37.834Z,99.90
2018-10-07T22:35:07.538Z,99.90
2018-10-07T22:37:37.358Z,99.90
2018-10-07T22:40:07.162Z,99.90
2018-10-07T22:42:36.958Z,99.90
2018-10-07T22:45:07.196Z,99.90
2018-10-07T22:47:37.011Z,99.90
2018-10-07T22:50:06.745Z,99.90
2018-10-07T22:52:36.617Z,99.90
2018-10-07T22:55:06.282Z,99.90
2018-10-07T22:57:36.099Z,99.90
2018-10-07T23:00:06.128Z,99.90
2018-10-07T23:02:35.986Z,99.90
2018-10-07T23:05:06.209Z,99.90
2018-10-07T23:07:36.234Z,99.90
2018-10-07T23:10:05.946Z,99.90
2018-10-07T23:12:35.800Z,99.90
2018-10-07T23:15:05.757Z,99.90
2018-10-07T23:17:35.515Z,99.90
2018-10-07T23:20:05.792Z,99.90
2018-10-07T23:22:35.546Z,99.90
2018-10-07T23:25:05.251Z,99.90
2018-10-07T23:27:35.148Z,99.90
2018-10-07T23:30:04.840Z,99.90
2018-10-07T23:32:34.626Z,99.90
2018-10-07T23:35:04.359Z,99.90
2018-10-07T23:37:34.176Z,99.90
2018-10-07T23:40:03.732Z,99.90
2018-10-07T23:42:33.524Z,99.90
2018-10-07T23:45:03.189Z,99.90
2018-10-07T23:47:32.958Z,99.90
2018-10-07T23:50:02.563Z,99.90
2018-10-07T23:52:32.341Z,99.90
2018-10-07T23:55:01.938Z,99.90
2018-10-07T23:57:31.953Z,99.90
